Time;durP1;ratioP1;P1;durP2;ratioP2;P2;SDS_P1;SDS_P2;PMS_P1;PMS_P2;Temp;Humidity;BMP_temperature;BMP_pressure;BME280_temperature;BME280_humidity;BME280_pressure;Samples;Min_cycle;Max_cycle;Signal;HPM_P1;HPM_P2
2023/12/09 00:01:20;;;;;;;4.03;2.13;;;22.70;99.90;;;;;;4974121;28;20043;-47
2023/12/09 00:03:45;;;;;;;5.43;2.17;;;22.70;99.90;;;;;;4975146;28;20150;-45
2023/12/09 00:06:11;;;;;;;5.63;1.90;;;22.70;99.90;;;;;;4989277;28;20487;-45
2023/12/09 00:08:37;;;;;;;5.22;1.90;;;22.70;99.90;;;;;;4974994;28;20030;-45
2023/12/09 00:11:03;;;;;;;5.32;2.30;;;22.70;99.90;;;;;;4974205;28;20027;-45
2023/12/09 00:13:31;;;;;;;4.72;1.88;;;22.70;99.90;;;;;;4973806;28;20023;-48
2023/12/09 00:15:57;;;;;;;4.03;2.10;;;22.70;99.90;;;;;;4974506;28;20038;-48
2023/12/09 00:18:22;;;;;;;6.53;2.53;;;22.70;99.90;;;;;;4972662;28;20023;-47
2023/12/09 00:20:48;;;;;;;5.15;2.03;;;22.70;99.90;;;;;;4974268;28;20035;-47
2023/12/09 00:23:14;;;;;;;3.00;1.88;;;22.70;99.90;;;;;;4974409;28;20025;-46
2023/12/09 00:25:40;;;;;;;3.90;1.63;;;22.70;99.90;;;;;;4974071;28;20480;-46
2023/12/09 00:28:05;;;;;;;4.90;1.52;;;22.60;99.90;;;;;;4979392;28;20038;-47
2023/12/09 00:30:31;;;;;;;3.00;1.52;;;22.60;99.90;;;;;;4993145;28;20022;-47
2023/12/09 00:32:58;;;;;;;4.15;2.10;;;22.60;99.90;;;;;;5001387;28;20035;-45
2023/12/09 00:35:23;;;;;;;4.72;1.45;;;22.60;99.90;;;;;;4973852;28;20038;-45
2023/12/09 00:37:50;;;;;;;4.15;1.60;;;22.60;99.90;;;;;;4973701;28;20471;-46
2023/12/09 00:40:17;;;;;;;7.50;1.67;;;22.60;99.90;;;;;;4985215;28;20121;-45
2023/12/09 00:42:42;;;;;;;3.13;1.67;;;22.60;99.90;;;;;;4974092;28;20379;-45
2023/12/09 00:45:08;;;;;;;5.03;1.67;;;22.60;99.90;;;;;;4973925;28;20272;-45
2023/12/09 00:47:34;;;;;;;6.63;2.17;;;22.60;99.90;;;;;;4980087;28;20030;-45
2023/12/09 00:50:01;;;;;;;5.13;1.25;;;22.60;99.90;;;;;;4977714;28;20579;-45
2023/12/09 00:52:27;;;;;;;7.10;2.05;;;22.60;99.90;;;;;;4974675;28;20379;-46
2023/12/09 00:54:52;;;;;;;7.35;1.80;;;22.60;99.90;;;;;;4973497;28;20038;-46
2023/12/09 00:57:20;;;;;;;4.00;1.63;;;22.60;99.90;;;;;;4973650;28;20015;-46
2023/12/09 00:59:47;;;;;;;6.05;1.30;;;22.50;99.90;;;;;;4973739;28;20031;-47
2023/12/09 01:02:12;;;;;;;3.80;1.40;;;22.50;99.90;;;;;;4973636;28;20046;-47
2023/12/09 01:04:38;;;;;;;2.15;1.08;;;22.50;99.90;;;;;;4972872;28;20113;-47
2023/12/09 01:07:04;;;;;;;4.80;1.52;;;22.50;99.90;;;;;;4974099;28;20027;-45
2023/12/09 01:09:30;;;;;;;4.43;1.40;;;22.50;99.90;;;;;;4974116;28;20479;-46
2023/12/09 01:11:56;;;;;;;5.43;1.50;;;22.50;99.90;;;;;;4974592;28;20422;-46
2023/12/09 01:14:21;;;;;;;4.68;1.67;;;22.50;99.90;;;;;;4974208;28;20494;-46
2023/12/09 01:16:47;;;;;;;3.03;1.23;;;22.50;99.90;;;;;;4972993;28;20423;-46
2023/12/09 01:19:13;;;;;;;8.45;1.73;;;22.50;99.90;;;;;;4973244;28;20027;-46
2023/12/09 01:21:39;;;;;;;4.78;1.50;;;22.50;99.90;;;;;;4973314;28;20434;-46
2023/12/09 01:24:05;;;;;;;5.38;1.50;;;22.40;99.90;;;;;;4973156;28;20030;-46
2023/12/09 01:26:31;;;;;;;3.63;1.85;;;22.40;99.90;;;;;;4972974;28;20436;-44
2023/12/09 01:28:59;;;;;;;5.22;1.80;;;22.40;99.90;;;;;;4973740;28;20130;-46
2023/12/09 01:31:25;;;;;;;5.05;1.73;;;22.40;99.90;;;;;;4970763;28;20143;-47
2023/12/09 01:33:51;;;;;;;3.42;1.25;;;22.40;99.90;;;;;;4961080;28;20122;-46
2023/12/09 01:36:17;;;;;;;4.45;1.58;;;22.40;99.90;;;;;;4976995;28;20487;-47
2023/12/09 01:38:42;;;;;;;4.38;1.80;;;22.40;99.90;;;;;;4972930;28;20033;-47
2023/12/09 01:41:09;;;;;;;4.93;1.35;;;22.40;99.90;;;;;;4976325;28;20034;-46
2023/12/09 01:43:35;;;;;;;4.25;2.00;;;22.40;99.90;;;;;;4973069;28;20034;-45
2023/12/09 01:46:10;;;;;;;5.90;1.60;;;22.40;99.90;;;;;;4973040;28;20570;-45
2023/12/09 01:48:39;;;;;;;6.00;1.30;;;22.30;99.90;;;;;;4972616;28;20460;-45
2023/12/09 01:51:06;;;;;;;5.22;1.58;;;22.30;99.90;;;;;;4973176;28;20027;-45
2023/12/09 01:53:33;;;;;;;;;;;22.40;99.90;;;;;;4987979;28;20484;-45
2023/12/09 01:56:01;;;;;;;2.87;1.30;;;22.30;99.90;;;;;;4972856;28;19914;-45
2023/12/09 01:58:27;;;;;;;4.72;1.67;;;22.30;99.90;;;;;;4972688;28;20263;-45
2023/12/09 02:00:53;;;;;;;5.40;1.77;;;22.30;99.90;;;;;;4973369;28;20039;-45
2023/12/09 02:03:19;;;;;;;4.43;1.30;;;22.30;99.90;;;;;;4972531;28;20491;-45
2023/12/09 02:05:45;;;;;;;3.97;1.60;;;22.30;99.90;;;;;;4972772;28;20110;-45
2023/12/09 02:08:11;;;;;;;4.03;1.17;;;22.30;99.90;;;;;;4973163;28;20487;-45
2023/12/09 02:10:38;;;;;;;4.07;1.40;;;22.20;99.90;;;;;;4972327;28;20019;-45
2023/12/09 02:13:20;;;;;;;13.68;1.63;;;22.20;99.90;;;;;;4973002;28;20026;-45
2023/12/09 02:16:05;;;;;;;4.70;1.45;;;22.20;99.90;;;;;;4965640;28;20046;-45
2023/12/09 02:18:33;;;;;;;5.25;1.20;;;22.20;99.90;;;;;;4960996;28;20027;-45
2023/12/09 02:20:59;;;;;;;6.03;1.88;;;22.20;99.90;;;;;;4975875;28;20054;-45
2023/12/09 02:23:25;;;;;;;2.83;1.27;;;22.20;99.90;;;;;;4979536;28;20028;-45
2023/12/09 02:25:59;;;;;;;4.20;1.50;;;22.20;99.90;;;;;;4963654;28;20033;-46
2023/12/09 02:28:27;;;;;;;4.38;1.38;;;22.10;99.90;;;;;;4972088;28;20030;-45
2023/12/09 02:31:05;;;;;;;4.90;1.10;;;22.10;99.90;;;;;;4976509;28;20391;-45
2023/12/09 02:33:33;;;;;;;3.58;1.20;;;22.10;99.90;;;;;;4976016;28;20018;-45
2023/12/09 02:36:01;;;;;;;3.25;1.13;;;22.10;99.90;;;;;;4976365;28;20073;-45
2023/12/09 02:38:28;;;;;;;3.70;1.13;;;22.10;99.90;;;;;;4976235;28;20094;-45
2023/12/09 02:40:55;;;;;;;4.72;1.45;;;22.10;99.90;;;;;;4976092;28;20038;-45
2023/12/09 02:43:20;;;;;;;4.57;1.48;;;22.00;99.90;;;;;;4975950;28;20118;-45
2023/12/09 02:45:46;;;;;;;5.38;1.40;;;22.00;99.90;;;;;;4975882;28;20475;-46
2023/12/09 02:48:12;;;;;;;4.28;1.45;;;22.00;99.90;;;;;;4971789;28;20031;-45
2023/12/09 02:50:38;;;;;;;4.20;1.40;;;22.00;99.90;;;;;;4971151;28;20027;-45
2023/12/09 02:53:04;;;;;;;4.13;1.05;;;22.00;99.90;;;;;;4966758;28;20122;-46
2023/12/09 02:55:29;;;;;;;4.75;1.50;;;21.90;99.90;;;;;;4975634;28;20507;-45
2023/12/09 02:57:55;;;;;;;4.85;1.27;;;21.90;99.90;;;;;;4975612;28;20062;-46
2023/12/09 03:00:21;;;;;;;4.47;1.48;;;21.90;99.90;;;;;;4976382;28;20038;-45
2023/12/09 03:02:47;;;;;;;4.47;1.27;;;21.90;99.90;;;;;;4975639;28;20109;-45
2023/12/09 03:05:13;;;;;;;2.47;1.45;;;21.90;99.90;;;;;;4975662;28;20022;-46
2023/12/09 03:07:38;;;;;;;3.78;1.20;;;21.90;99.90;;;;;;4975029;28;20026;-45
2023/12/09 03:10:04;;;;;;;3.92;1.45;;;21.90;99.90;;;;;;4974093;28;20093;-46
2023/12/09 03:12:30;;;;;;;3.70;1.10;;;21.90;99.90;;;;;;4975768;28;20018;-46
2023/12/09 03:14:56;;;;;;;3.85;1.27;;;21.80;99.90;;;;;;4975146;28;20050;-46
2023/12/09 03:17:22;;;;;;;4.45;1.40;;;21.80;99.90;;;;;;4975454;28;20549;-46
2023/12/09 03:19:47;;;;;;;4.85;1.25;;;21.80;99.90;;;;;;4974287;28;20019;-45
2023/12/09 03:22:13;;;;;;;2.70;1.00;;;21.80;99.90;;;;;;4975463;28;20034;-46
2023/12/09 03:24:42;;;;;;;4.70;1.90;;;21.80;99.90;;;;;;4974713;28;20059;-46
2023/12/09 03:27:08;;;;;;;2.28;1.13;;;21.80;99.90;;;;;;4974889;28;20486;-50
2023/12/09 03:29:36;;;;;;;2.70;1.02;;;21.80;99.90;;;;;;4973192;28;20033;-46
2023/12/09 03:32:02;;;;;;;1.38;0.77;;;21.80;99.90;;;;;;4973103;28;20531;-46
2023/12/09 03:34:27;;;;;;;2.90;1.38;;;21.80;99.90;;;;;;4970450;28;20046;-45
2023/12/09 03:36:53;;;;;;;4.93;0.93;;;21.80;99.90;;;;;;4972461;28;20113;-46
2023/12/09 03:39:19;;;;;;;3.25;1.20;;;21.70;99.90;;;;;;4972531;28;20063;-45
2023/12/09 03:41:45;;;;;;;4.00;1.13;;;21.70;99.90;;;;;;4973611;28;20533;-46
2023/12/09 03:44:11;;;;;;;6.30;1.23;;;21.70;99.90;;;;;;4972645;28;20027;-46
2023/12/09 03:46:37;;;;;;;2.78;1.08;;;21.70;99.90;;;;;;4974751;28;20073;-46
2023/12/09 03:49:02;;;;;;;3.75;1.05;;;21.70;99.90;;;;;;4974557;28;20027;-46
2023/12/09 03:51:28;;;;;;;3.15;0.95;;;21.70;99.90;;;;;;4973670;28;20521;-46
2023/12/09 03:53:54;;;;;;;4.28;1.40;;;21.70;99.90;;;;;;4975190;28;20038;-46
2023/12/09 03:56:22;;;;;;;4.93;1.45;;;21.60;99.90;;;;;;4975048;28;20474;-46
2023/12/09 03:58:50;;;;;;;2.22;1.10;;;21.60;99.90;;;;;;4974861;28;20438;-46
2023/12/09 04:01:16;;;;;;;2.25;0.73;;;21.60;99.90;;;;;;4974041;28;20073;-46
2023/12/09 04:03:41;;;;;;;3.40;1.40;;;21.60;99.90;;;;;;4974686;28;20023;-46
2023/12/09 04:06:07;;;;;;;4.95;1.65;;;21.60;99.90;;;;;;4974933;28;20483;-46
2023/12/09 04:08:33;;;;;;;5.38;1.75;;;21.60;99.90;;;;;;4975219;28;20102;-46
2023/12/09 04:10:59;;;;;;;3.33;1.30;;;21.60;99.90;;;;;;4974722;28;20023;-46
2023/12/09 04:13:25;;;;;;;7.18;1.40;;;21.60;99.90;;;;;;4974906;28;20030;-46
2023/12/09 04:15:51;;;;;;;3.88;0.80;;;21.60;99.90;;;;;;4974724;28;20479;-46
2023/12/09 04:18:17;;;;;;;4.43;1.08;;;21.50;99.90;;;;;;4974522;28;20105;-46
2023/12/09 04:20:43;;;;;;;4.97;1.10;;;21.60;99.90;;;;;;4974698;28;20040;-46
2023/12/09 04:23:08;;;;;;;3.88;1.67;;;21.50;99.90;;;;;;4973238;28;20058;-46
2023/12/09 04:25:35;;;;;;;4.90;1.33;;;21.50;99.90;;;;;;4974591;28;20027;-47
2023/12/09 04:28:01;;;;;;;3.97;1.38;;;21.50;99.90;;;;;;4973344;28;20109;-46
2023/12/09 04:30:28;;;;;;;4.40;1.50;;;21.50;99.90;;;;;;4974382;28;20022;-45
2023/12/09 04:32:53;;;;;;;5.00;1.25;;;21.50;99.90;;;;;;4974297;28;20035;-43
2023/12/09 04:35:19;;;;;;;3.92;1.20;;;21.50;99.90;;;;;;4974171;28;20244;-44
2023/12/09 04:37:45;;;;;;;7.55;1.67;;;21.50;99.90;;;;;;4974254;28;20023;-44
2023/12/09 04:40:11;;;;;;;2.88;1.00;;;21.50;99.90;;;;;;4974115;28;20023;-44
2023/12/09 04:42:38;;;;;;;3.60;0.90;;;21.40;99.90;;;;;;4974231;28;20026;-44
2023/12/09 04:45:05;;;;;;;3.58;1.13;;;21.40;99.90;;;;;;4974302;28;20031;-44
2023/12/09 04:47:31;;;;;;;7.03;1.92;;;21.50;99.90;;;;;;4974170;28;20407;-44
2023/12/09 04:49:57;;;;;;;3.80;1.23;;;21.40;99.90;;;;;;4974155;28;20030;-46
2023/12/09 04:52:23;;;;;;;2.17;1.02;;;21.40;99.90;;;;;;4974024;28;20015;-45
2023/12/09 04:54:49;;;;;;;3.03;1.02;;;21.40;99.90;;;;;;4973960;28;20026;-44
2023/12/09 04:57:15;;;;;;;2.67;0.90;;;21.40;99.90;;;;;;4974003;28;20070;-44
2023/12/09 04:59:42;;;;;;;3.15;1.25;;;21.40;99.90;;;;;;4973875;28;20029;-45
2023/12/09 05:02:07;;;;;;;2.20;1.00;;;21.40;99.90;;;;;;4973945;28;20051;-44
2023/12/09 05:04:33;;;;;;;5.03;1.30;;;21.40;99.90;;;;;;4974053;28;20033;-44
2023/12/09 05:06:59;;;;;;;3.67;1.20;;;21.40;99.90;;;;;;4973945;28;20074;-44
2023/12/09 05:09:25;;;;;;;4.15;1.13;;;21.30;99.90;;;;;;4973807;28;20050;-44
2023/12/09 05:11:51;;;;;;;3.88;1.25;;;21.30;99.90;;;;;;4973988;28;20501;-44
2023/12/09 05:14:17;;;;;;;4.50;1.30;;;21.30;99.90;;;;;;4973756;28;20110;-44
2023/12/09 05:16:43;;;;;;;4.13;0.98;;;21.30;99.90;;;;;;4973643;28;20031;-45
2023/12/09 05:19:08;;;;;;;3.03;1.08;;;21.30;99.90;;;;;;4973604;28;20038;-45
2023/12/09 05:21:34;;;;;;;4.03;1.38;;;21.30;99.90;;;;;;4973884;28;20102;-44
2023/12/09 05:24:00;;;;;;;2.83;1.02;;;21.30;99.90;;;;;;4973665;28;20027;-44
2023/12/09 05:26:28;;;;;;;3.50;1.60;;;21.30;99.90;;;;;;4973671;28;20081;-44
2023/12/09 05:28:55;;;;;;;3.25;0.88;;;21.20;99.90;;;;;;4973616;28;20042;-45
2023/12/09 05:31:22;;;;;;;3.00;0.90;;;21.30;99.90;;;;;;4973476;28;20037;-46
2023/12/09 05:33:48;;;;;;;4.57;1.10;;;21.20;99.90;;;;;;4973498;28;20026;-45
2023/12/09 05:36:14;;;;;;;3.75;1.20;;;21.20;99.90;;;;;;4973484;28;20046;-45
2023/12/09 05:38:41;;;;;;;4.00;1.00;;;21.20;99.90;;;;;;4973424;28;20019;-45
2023/12/09 05:41:08;;;;;;;4.53;1.27;;;21.20;99.90;;;;;;4973595;28;20026;-45
2023/12/09 05:43:37;;;;;;;6.28;1.38;;;21.20;99.90;;;;;;4973383;28;20035;-45
2023/12/09 05:46:03;;;;;;;5.18;1.40;;;21.20;99.90;;;;;;4973383;28;20099;-45
2023/12/09 05:48:29;;;;;;;2.72;1.10;;;21.20;99.90;;;;;;4973387;28;20019;-46
2023/12/09 05:50:55;;;;;;;4.05;1.10;;;21.20;99.90;;;;;;4974319;28;20026;-46
2023/12/09 05:53:22;;;;;;;6.32;2.15;;;21.20;99.90;;;;;;4977274;28;20023;-45
2023/12/09 05:55:47;;;;;;;5.10;1.88;;;21.20;99.90;;;;;;4977201;28;20039;-46
2023/12/09 05:58:13;;;;;;;3.17;1.27;;;21.20;99.90;;;;;;4975941;28;20045;-46
2023/12/09 06:00:39;;;;;;;5.13;1.33;;;21.20;99.90;;;;;;4975182;28;20081;-45
2023/12/09 06:03:05;;;;;;;3.72;0.93;;;21.20;99.90;;;;;;4976760;28;20106;-45
2023/12/09 06:05:30;;;;;;;2.70;1.27;;;21.20;99.90;;;;;;4977178;28;20074;-45
2023/12/09 06:07:56;;;;;;;7.22;1.05;;;21.20;99.90;;;;;;4975748;28;20442;-45
2023/12/09 06:10:22;;;;;;;2.95;1.58;;;21.20;99.90;;;;;;4976234;28;20501;-47
2023/12/09 06:12:48;;;;;;;3.97;1.48;;;21.10;99.90;;;;;;4976677;28;20521;-45
2023/12/09 06:15:14;;;;;;;2.63;1.23;;;21.10;99.90;;;;;;4975596;28;20038;-45
2023/12/09 06:17:39;;;;;;;4.82;1.58;;;21.10;99.90;;;;;;4976509;28;20109;-45
2023/12/09 06:20:08;;;;;;;3.70;1.13;;;21.10;99.90;;;;;;4976546;28;20054;-45
2023/12/09 06:22:34;;;;;;;5.82;1.65;;;21.10;99.90;;;;;;4976455;28;20106;-45
2023/12/09 06:24:59;;;;;;;6.80;1.80;;;21.10;99.90;;;;;;4975400;28;20174;-45
2023/12/09 06:27:25;;;;;;;3.78;1.48;;;21.10;99.90;;;;;;4975492;28;20467;-45
2023/12/09 06:29:52;;;;;;;5.40;1.35;;;21.10;99.90;;;;;;4976015;28;20464;-45
2023/12/09 06:32:17;;;;;;;4.75;1.88;;;21.00;99.90;;;;;;4976453;28;20069;-45
2023/12/09 06:34:43;;;;;;;5.03;1.30;;;21.10;99.90;;;;;;4976506;28;20412;-45
2023/12/09 06:37:09;;;;;;;3.83;1.25;;;21.00;99.90;;;;;;4976821;28;20030;-45
2023/12/09 06:39:36;;;;;;;2.97;1.20;;;21.00;99.90;;;;;;4976496;28;20092;-45
2023/12/09 06:42:02;;;;;;;3.78;1.35;;;21.00;99.90;;;;;;4976333;28;20033;-45
2023/12/09 06:44:27;;;;;;;5.00;1.55;;;21.00;99.90;;;;;;4976299;28;20033;-46
2023/12/09 06:46:53;;;;;;;4.35;1.67;;;21.00;99.90;;;;;;4976316;28;20027;-46
2023/12/09 06:49:19;;;;;;;3.58;1.42;;;21.00;99.90;;;;;;4976443;28;20074;-46
2023/12/09 06:51:45;;;;;;;3.72;1.35;;;21.00;99.90;;;;;;4976436;28;20026;-46
2023/12/09 06:54:11;;;;;;;5.20;1.35;;;21.00;99.90;;;;;;4976370;28;20035;-46
2023/12/09 06:56:37;;;;;;;3.78;1.00;;;21.00;99.90;;;;;;4976102;28;20057;-46
2023/12/09 06:59:03;;;;;;;3.60;1.08;;;21.00;99.90;;;;;;4975975;28;20061;-46
2023/12/09 07:01:29;;;;;;;3.92;1.40;;;21.00;99.90;;;;;;4990809;28;20049;-45
2023/12/09 07:03:55;;;;;;;6.32;1.73;;;21.00;99.90;;;;;;4974729;28;20475;-45
2023/12/09 07:06:26;;;;;;;3.92;1.65;;;20.90;99.90;;;;;;4975989;28;20435;-46
2023/12/09 07:08:53;;;;;;;4.50;1.25;;;20.90;99.90;;;;;;4975943;28;20022;-45
2023/12/09 07:11:21;;;;;;;5.45;1.23;;;20.90;99.90;;;;;;4975785;28;20105;-45
2023/12/09 07:13:48;;;;;;;2.97;1.17;;;20.90;99.90;;;;;;4975823;28;20494;-45
2023/12/09 07:16:14;;;;;;;2.58;1.30;;;21.00;99.90;;;;;;4975953;28;20463;-45
2023/12/09 07:18:46;;;;;;;11.57;1.92;;;20.90;99.90;;;;;;4976013;28;20561;-46
2023/12/09 07:21:16;;;;;;;5.90;1.55;;;20.90;99.90;;;;;;4976015;28;20046;-46
2023/12/09 07:23:42;;;;;;;3.30;1.00;;;20.90;99.90;;;;;;4975843;28;20133;-46
2023/12/09 07:26:08;;;;;;;3.75;1.52;;;20.90;99.90;;;;;;4975585;28;20383;-46
2023/12/09 07:28:34;;;;;;;2.10;1.17;;;20.90;99.90;;;;;;4975588;28;20034;-45
2023/12/09 07:31:00;;;;;;;3.40;1.38;;;20.90;99.90;;;;;;4990477;28;20051;-44
2023/12/09 07:33:26;;;;;;;2.67;1.08;;;20.90;99.90;;;;;;4975572;28;20546;-45
2023/12/09 07:35:52;;;;;;;3.15;1.10;;;20.90;99.90;;;;;;4975410;28;20043;-45
2023/12/09 07:38:18;;;;;;;3.60;1.33;;;20.90;99.90;;;;;;4975442;28;20378;-45
2023/12/09 07:40:44;;;;;;;3.85;1.40;;;20.90;99.90;;;;;;4975618;28;20027;-45
2023/12/09 07:43:10;;;;;;;3.67;1.25;;;20.90;99.90;;;;;;4975173;28;20031;-45
2023/12/09 07:45:36;;;;;;;5.05;1.73;;;20.90;99.90;;;;;;4975292;28;20042;-45
2023/12/09 07:48:03;;;;;;;2.92;1.20;;;20.90;99.90;;;;;;4975199;28;20022;-45
2023/12/09 07:50:32;;;;;;;2.85;1.10;;;20.90;99.90;;;;;;4975073;28;20057;-46
2023/12/09 07:52:59;;;;;;;3.88;1.17;;;20.90;99.90;;;;;;4975145;28;20034;-45
2023/12/09 07:55:25;;;;;;;4.07;1.85;;;20.90;99.90;;;;;;4975068;28;20042;-45
2023/12/09 07:57:50;;;;;;;6.18;1.25;;;21.00;99.90;;;;;;4975041;28;20023;-45
2023/12/09 08:00:17;;;;;;;4.70;1.45;;;21.00;99.90;;;;;;4975108;28;20106;-46
2023/12/09 08:02:43;;;;;;;2.88;1.20;;;21.00;99.90;;;;;;4973629;28;20569;-45
2023/12/09 08:05:09;;;;;;;3.80;1.80;;;21.00;99.90;;;;;;4975053;28;20483;-45
2023/12/09 08:07:36;;;;;;;2.47;0.80;;;21.00;99.90;;;;;;4974730;28;20098;-45
2023/12/09 08:10:02;;;;;;;2.78;1.42;;;21.00;99.90;;;;;;4974883;28;20030;-45
2023/12/09 08:12:28;;;;;;;5.13;1.50;;;21.00;99.90;;;;;;4974631;28;20022;-45
2023/12/09 08:14:54;;;;;;;3.53;1.52;;;21.00;99.90;;;;;;4974280;28;20106;-45
2023/12/09 08:17:20;;;;;;;8.65;1.73;;;21.10;99.90;;;;;;4974683;28;20506;-45
2023/12/09 08:19:45;;;;;;;1.80;1.30;;;21.10;99.90;;;;;;4974802;28;20023;-45
2023/12/09 08:22:12;;;;;;;6.15;1.80;;;21.10;99.90;;;;;;4974519;28;20033;-45
2023/12/09 08:24:38;;;;;;;4.13;1.50;;;21.10;99.90;;;;;;4974553;28;20630;-45
2023/12/09 08:27:04;;;;;;;3.13;1.15;;;21.20;99.90;;;;;;4974442;28;20054;-45
2023/12/09 08:29:29;;;;;;;3.88;1.52;;;21.20;99.90;;;;;;4973298;28;20101;-45
2023/12/09 08:31:56;;;;;;;3.88;1.65;;;21.20;99.90;;;;;;4974460;28;20027;-45
2023/12/09 08:34:22;;;;;;;2.97;1.33;;;21.20;99.90;;;;;;4974210;28;20062;-45
2023/12/09 08:36:48;;;;;;;5.07;1.65;;;21.30;99.90;;;;;;4974443;28;20191;-46
2023/12/09 08:39:15;;;;;;;3.97;1.60;;;21.30;99.90;;;;;;4974452;28;20077;-45
2023/12/09 08:41:40;;;;;;;4.78;2.00;;;21.30;99.90;;;;;;4974236;28;20106;-45
2023/12/09 08:44:07;;;;;;;3.70;1.25;;;21.30;99.90;;;;;;4974172;28;20122;-45
2023/12/09 08:46:32;;;;;;;4.03;1.30;;;21.30;99.90;;;;;;4974108;28;20034;-45
2023/12/09 08:48:58;;;;;;;2.47;1.30;;;21.40;99.90;;;;;;4974150;28;20019;-45
2023/12/09 08:51:24;;;;;;;2.83;1.13;;;21.40;99.90;;;;;;4974072;28;20378;-44
2023/12/09 08:53:50;;;;;;;4.30;1.83;;;21.40;99.90;;;;;;4974071;28;20023;-45
2023/12/09 08:56:16;;;;;;;4.00;1.52;;;21.40;99.90;;;;;;4974194;28;20050;-45
2023/12/09 08:58:42;;;;;;;4.85;1.52;;;21.50;99.90;;;;;;4973897;28;20027;-45
2023/12/09 09:01:08;;;;;;;3.42;1.75;;;21.50;99.90;;;;;;4973655;28;20047;-45
2023/12/09 09:03:34;;;;;;;3.58;1.42;;;21.50;99.90;;;;;;4973891;28;20023;-46
2023/12/09 09:06:00;;;;;;;4.20;1.55;;;21.50;99.90;;;;;;4973798;28;20450;-45
2023/12/09 09:08:26;;;;;;;5.05;1.52;;;21.60;99.90;;;;;;4973669;28;20097;-46
2023/12/09 09:10:52;;;;;;;4.38;1.90;;;21.60;99.90;;;;;;4973778;28;20102;-45
2023/12/09 09:13:19;;;;;;;3.90;1.30;;;21.70;99.90;;;;;;4973846;28;20019;-45
2023/12/09 09:15:44;;;;;;;3.03;1.42;;;21.70;99.90;;;;;;4973577;28;20049;-45
2023/12/09 09:18:10;;;;;;;5.20;1.50;;;21.70;99.90;;;;;;4973563;28;20424;-45
2023/12/09 09:20:37;;;;;;;4.05;1.48;;;21.70;99.90;;;;;;4973779;28;20379;-45
2023/12/09 09:23:03;;;;;;;3.22;2.05;;;21.80;99.90;;;;;;4973645;28;20026;-45
2023/12/09 09:25:30;;;;;;;4.97;1.58;;;21.80;99.90;;;;;;4987820;28;20164;-46
2023/12/09 09:27:56;;;;;;;3.83;1.38;;;21.80;99.90;;;;;;4973774;28;20483;-45
2023/12/09 09:30:25;;;;;;;3.08;1.48;;;21.90;99.90;;;;;;4973596;28;20037;-46
2023/12/09 09:32:51;;;;;;;4.13;1.70;;;21.90;99.90;;;;;;4973639;28;20025;-45
2023/12/09 09:35:17;;;;;;;4.00;1.52;;;21.90;99.90;;;;;;4973819;28;20039;-45
2023/12/09 09:37:43;;;;;;;7.72;1.80;;;21.90;99.90;;;;;;4973446;28;20066;-46
2023/12/09 09:40:11;;;;;;;4.90;1.75;;;21.90;99.90;;;;;;4973734;28;20150;-45
2023/12/09 09:42:59;;;;;;;4.35;1.55;;;22.00;99.90;;;;;;4973451;28;20086;-45
2023/12/09 09:45:27;;;;;;;2.75;1.50;;;22.10;99.90;;;;;;4973452;28;20034;-46
2023/12/09 09:47:55;;;;;;;5.78;1.65;;;22.10;99.90;;;;;;4969676;28;20045;-45
2023/12/09 09:50:25;;;;;;;5.13;1.77;;;22.10;99.90;;;;;;4973687;28;20383;-45
2023/12/09 09:52:52;;;;;;;2.65;1.58;;;22.20;99.90;;;;;;4987546;28;20027;-46
2023/12/09 09:55:21;;;;;;;6.45;2.33;;;22.20;99.90;;;;;;4971234;28;20070;-46
2023/12/09 09:57:51;;;;;;;3.80;1.50;;;22.20;99.90;;;;;;4973113;28;20506;-46
2023/12/09 10:00:19;;;;;;;5.75;1.85;;;22.20;99.90;;;;;;4973330;28;20058;-45
2023/12/09 10:02:47;;;;;;;5.35;1.33;;;22.30;99.90;;;;;;4972197;28;20053;-45
2023/12/09 10:05:17;;;;;;;2.78;1.10;;;22.40;99.90;;;;;;4972979;28;20574;-46
2023/12/09 10:07:46;;;;;;;4.80;2.00;;;22.40;99.90;;;;;;4973051;28;20066;-46
2023/12/09 10:10:14;;;;;;;4.10;1.83;;;22.40;99.90;;;;;;4973108;28;20054;-46
2023/12/09 10:12:40;;;;;;;2.47;1.48;;;22.50;99.90;;;;;;4972569;28;20034;-46
2023/12/09 10:15:07;;;;;;;3.92;1.65;;;22.50;99.90;;;;;;4970422;28;20034;-46
2023/12/09 10:17:33;;;;;;;8.00;1.83;;;22.60;99.90;;;;;;4972084;28;20026;-45
2023/12/09 10:19:59;;;;;;;6.60;1.70;;;22.60;99.90;;;;;;4970982;28;20030;-45
2023/12/09 10:22:26;;;;;;;6.25;1.83;;;22.60;99.90;;;;;;4971720;28;20025;-47
2023/12/09 10:24:52;;;;;;;5.82;1.80;;;22.70;99.90;;;;;;4973227;28;20082;-46
2023/12/09 10:27:23;;;;;;;6.13;1.90;;;22.70;99.90;;;;;;4972583;28;20114;-46
2023/12/09 10:29:53;;;;;;;3.72;1.95;;;22.80;99.90;;;;;;4973095;28;20030;-46
2023/12/09 10:32:22;;;;;;;5.10;2.28;;;22.80;99.90;;;;;;4972634;28;20066;-46
2023/12/09 10:34:49;;;;;;;3.80;1.80;;;22.80;99.90;;;;;;4972311;28;20483;-45
2023/12/09 10:37:16;;;;;;;3.30;1.77;;;22.80;99.90;;;;;;4973217;28;20035;-48
2023/12/09 10:39:47;;;;;;;5.72;1.85;;;22.90;99.90;;;;;;4974221;28;20034;-45
2023/12/09 10:42:13;;;;;;;8.55;2.05;;;22.90;99.90;;;;;;4975477;28;20038;-45
2023/12/09 10:44:40;;;;;;;5.55;1.67;;;22.90;99.90;;;;;;4975586;28;20379;-46
2023/12/09 10:47:07;;;;;;;6.88;2.70;;;23.00;99.90;;;;;;4975951;28;20586;-47
2023/12/09 10:49:33;;;;;;;4.43;1.45;;;23.00;99.90;;;;;;4976014;28;20034;-46
2023/12/09 10:51:59;;;;;;;7.28;1.92;;;23.00;99.90;;;;;;4976223;28;20027;-46
2023/12/09 10:54:25;;;;;;;5.22;2.22;;;23.10;99.90;;;;;;4975310;28;20557;-46
2023/12/09 10:56:51;;;;;;;7.38;2.30;;;23.10;99.90;;;;;;4975421;28;20038;-44
2023/12/09 10:59:20;;;;;;;5.05;2.55;;;23.10;99.90;;;;;;4975938;28;20077;-45
2023/12/09 11:01:47;;;;;;;9.93;2.65;;;23.20;99.90;;;;;;4975992;28;20228;-46
2023/12/09 11:04:14;;;;;;;7.97;2.40;;;23.20;99.90;;;;;;4975987;28;20073;-46
2023/12/09 11:06:41;;;;;;;7.75;2.47;;;23.20;99.90;;;;;;4975936;28;20030;-47
2023/12/09 11:09:08;;;;;;;6.90;2.30;;;23.30;99.90;;;;;;4975953;28;20153;-47
2023/12/09 11:11:37;;;;;;;7.50;3.40;;;23.30;99.90;;;;;;4975706;28;20049;-47
2023/12/09 11:14:08;;;;;;;7.72;3.13;;;23.30;99.90;;;;;;4974448;28;20097;-47
2023/12/09 11:16:34;;;;;;;19.55;3.40;;;23.40;99.90;;;;;;4975793;28;20072;-47
2023/12/09 11:19:00;;;;;;;11.93;3.13;;;23.40;99.90;;;;;;4975616;28;20034;-47
2023/12/09 11:21:29;;;;;;;16.33;3.45;;;23.40;99.90;;;;;;4974714;28;20114;-47
2023/12/09 11:23:57;;;;;;;23.30;3.33;;;23.50;99.90;;;;;;4975772;28;20415;-48
2023/12/09 11:26:31;;;;;;;14.68;2.55;;;23.50;99.90;;;;;;4975873;28;20054;-47
2023/12/09 11:28:59;;;;;;;15.52;2.97;;;23.50;99.90;;;;;;4975719;28;20037;-47
2023/12/09 11:31:50;;;;;;;;;;;23.50;99.90;;;;;;4975753;28;20034;-47
2023/12/09 11:34:18;;;;;;;15.48;3.25;;;23.60;99.90;;;;;;4974148;28;19917;-48
2023/12/09 11:36:46;;;;;;;7.68;2.80;;;23.60;99.90;;;;;;4975466;28;20031;-54
2023/12/09 11:39:22;;;;;;;15.60;3.28;;;23.60;99.90;;;;;;4974700;28;20395;-45
2023/12/09 11:41:49;;;;;;;11.40;2.83;;;23.70;99.90;;;;;;4972619;28;20133;-46
2023/12/09 11:44:15;;;;;;;7.72;3.28;;;23.70;99.90;;;;;;4974902;28;20154;-46
2023/12/09 11:46:42;;;;;;;13.27;3.53;;;23.70;99.90;;;;;;4974792;28;20101;-47
2023/12/09 11:49:08;;;;;;;12.75;3.42;;;23.80;99.90;;;;;;4973110;28;20432;-47
2023/12/09 11:51:35;;;;;;;7.50;2.95;;;23.80;99.90;;;;;;4972190;28;20023;-47
2023/12/09 11:54:03;;;;;;;7.35;2.55;;;23.90;99.90;;;;;;4974549;28;20531;-46
2023/12/09 11:56:29;;;;;;;9.95;3.13;;;23.90;99.90;;;;;;4974434;28;20094;-46
2023/12/09 11:58:55;;;;;;;6.68;2.45;;;23.90;99.90;;;;;;4974690;28;20471;-47
2023/12/09 12:01:22;;;;;;;9.25;2.88;;;23.90;99.90;;;;;;4974739;28;20107;-47
2023/12/09 12:03:49;;;;;;;9.43;3.37;;;24.00;99.90;;;;;;4974496;28;20030;-47
2023/12/09 12:06:16;;;;;;;11.27;3.30;;;24.00;99.90;;;;;;4974739;28;20022;-46
2023/12/09 12:08:43;;;;;;;9.18;3.25;;;24.00;99.90;;;;;;4973477;28;20026;-46
2023/12/09 12:11:10;;;;;;;10.05;3.05;;;24.00;99.90;;;;;;4974148;28;20019;-46
2023/12/09 12:13:36;;;;;;;8.23;3.60;;;24.10;99.90;;;;;;4974340;28;20042;-46
2023/12/09 12:16:02;;;;;;;6.15;2.65;;;24.10;99.90;;;;;;4974614;28;20035;-46
2023/12/09 12:18:29;;;;;;;7.32;3.47;;;24.10;99.90;;;;;;4974733;28;20047;-46
2023/12/09 12:20:55;;;;;;;7.78;4.03;;;24.20;99.90;;;;;;4974560;28;20483;-46
2023/12/09 12:23:21;;;;;;;13.10;3.20;;;24.20;99.90;;;;;;4974506;28;20031;-46
2023/12/09 12:25:52;;;;;;;7.78;3.40;;;24.20;99.90;;;;;;4974363;28;20466;-47
2023/12/09 12:28:18;;;;;;;9.02;3.47;;;24.20;99.90;;;;;;4974425;28;20027;-45
2023/12/09 12:30:44;;;;;;;9.07;4.07;;;24.20;99.90;;;;;;4974270;28;20391;-48
2023/12/09 12:33:11;;;;;;;10.52;4.60;;;24.30;99.90;;;;;;4973863;28;20030;-50
2023/12/09 12:35:36;;;;;;;10.60;3.30;;;24.30;99.90;;;;;;4972415;28;20100;-49
2023/12/09 12:38:02;;;;;;;12.27;4.82;;;24.40;99.90;;;;;;4974237;28;20105;-49
2023/12/09 12:40:28;;;;;;;14.05;5.93;;;24.40;99.90;;;;;;4974403;28;20031;-47
2023/12/09 12:42:54;;;;;;;6.30;3.47;;;24.40;99.90;;;;;;4974209;28;20432;-50